1286-й км

Карта отелей и гостиниц, располагающихся рядом с аэропортом 1286-й км :

1286-й км Республика Коми 62° 10' 19.0812" N, 49° 44' 32.5788" E
1286-й км Республика Коми 62° 10' 19.0812" N, 49° 44' 32.5788" E
Код аэродрома ИКАО
HF0V
Код аэродрома RU
ХФ0Ж
Координаты
N62.17197° E049.74238°
Превышение над уровнем моря
132
Основная полоса
04/22
Курс магнитный
040,7/220,7
Длина основной ВПП
25
Ширина основной ВПП
20
Покрытие основной ВПП
Твёрдое (бетон)
Освещение ВПП
Нет
Тип: 
Вертодром
Класс аэродрома: 
Принадлежность: 
ГА
Статус: 
Действующий
Сайт: 
E-mail аэродрома: 
Страна: 
Россия
Регион: 
Республика Коми
Город: 
Дополнительная информация: 
Оператор: нет данных.

Найти трансфер

С помощью этой формы Вы можете найти трансфер из аэропорта 1286-й км в город, аэропорт или вокзал:

Карта места

Javascript is required to view this map.

Погода в аэропортах:

Авиационная погода в Констанце

Регион: 
Погода METAR: 
LRCK 060700Z 18005KT 3000 BR FEW003 10/10 Q1008 BECMG 5000
Время наблюдения
2021-12-06T07:00:00Z
Температура C
10.0
Точка росы
10.0
Направление ветра
180
Скорость ветра (узлы)
5
Метео видимость
1.86
Явления погоды
BR
Условия полета
IFR

Авиационная погода в Архангельске

Регион: 
Погода METAR: 
ULAA 060700Z 23001MPS 9000 -SHSN OVC021CB M11/M13 Q1028 R08/490339 NOSIG RMK QFE770/1027
Время наблюдения
2021-12-06T07:00:00Z
Температура C
-11.0
Точка росы
-13.0
Направление ветра
230
Скорость ветра (узлы)
2
Метео видимость
5.59
Явления погоды
-SHSN
Условия полета
MVFR
Аэропорт подробнее: 

Авиационная погода в Раменское

Регион: 
Погода METAR: 
UUBW 060800Z 14004MPS 6000 -SN OVC007 M04/M05 Q1021 R30/520240 NOSIG
Время наблюдения
2021-12-06T08:00:00Z
Температура C
-4.0
Точка росы
-5.0
Направление ветра
140
Скорость ветра (узлы)
8
Метео видимость
3.73
Явления погоды
-SN
Условия полета
IFR
Аэропорт подробнее: 

Авиационная погода в Махачкале

Регион: 
Погода METAR: 
URML 060700Z VRB01MPS 0150 0100NW R32/0200N FG VV001 04/03 Q1021 R32/01//70 TEMPO 3100 BR SCT001 BKN006 RMK QBB050 MT OBSC QFE766/1021
Время наблюдения
2021-12-06T07:00:00Z
Температура C
4.0
Точка росы
3.0
Направление ветра
0
Скорость ветра (узлы)
2
Метео видимость
0.09
Явления погоды
FG
Условия полета
LIFR
Аэропорт подробнее: